sensor_id;sensor_type;location;lat;lon;timestamp;temperature;humidity
38973;DHT22;25333;50.762;4.470;2024-02-26T01:08:30;6.70;99.90
38973;DHT22;25333;50.762;4.470;2024-02-26T01:22:07;6.70;99.90
38973;DHT22;25333;50.762;4.470;2024-02-26T01:25:31;6.60;99.90
38973;DHT22;25333;50.762;4.470;2024-02-26T02:06:19;6.50;99.90
38973;DHT22;25333;50.762;4.470;2024-02-26T02:08:57;6.50;99.90
38973;DHT22;25333;50.762;4.470;2024-02-26T02:12:09;6.50;99.90
38973;DHT22;25333;50.762;4.470;2024-02-26T02:17:42;6.50;99.90
38973;DHT22;25333;50.762;4.470;2024-02-26T02:20:17;6.40;99.90
38973;DHT22;25333;50.762;4.470;2024-02-26T02:23:40;6.50;99.90
38973;DHT22;25333;50.762;4.470;2024-02-26T02:26:26;6.50;99.90
38973;DHT22;25333;50.762;4.470;2024-02-26T02:29:07;6.50;99.90
38973;DHT22;25333;50.762;4.470;2024-02-26T02:32:11;6.50;99.90
38973;DHT22;25333;50.762;4.470;2024-02-26T02:35:06;6.50;99.90
38973;DHT22;25333;50.762;4.470;2024-02-26T02:41:11;6.50;99.90
38973;DHT22;25333;50.762;4.470;2024-02-26T02:43:40;6.50;99.90
38973;DHT22;25333;50.762;4.470;2024-02-26T02:46:06;6.50;99.90
38973;DHT22;25333;50.762;4.470;2024-02-26T02:48:32;6.60;99.90
38973;DHT22;25333;50.762;4.470;2024-02-26T02:51:07;6.60;99.90
38973;DHT22;25333;50.762;4.470;2024-02-26T02:54:16;6.60;99.90
38973;DHT22;25333;50.762;4.470;2024-02-26T02:57:13;6.60;99.90
38973;DHT22;25333;50.762;4.470;2024-02-26T03:06:41;6.50;99.90
38973;DHT22;25333;50.762;4.470;2024-02-26T03:12:46;6.60;99.90
38973;DHT22;25333;50.762;4.470;2024-02-26T03:15:25;6.50;99.90
38973;DHT22;25333;50.762;4.470;2024-02-26T03:17:58;6.50;99.90
38973;DHT22;25333;50.762;4.470;2024-02-26T03:20:34;6.50;99.90
38973;DHT22;25333;50.762;4.470;2024-02-26T03:23:07;6.50;99.90
38973;DHT22;25333;50.762;4.470;2024-02-26T03:25:35;6.40;99.90
38973;DHT22;25333;50.762;4.470;2024-02-26T03:28:00;6.40;99.90
38973;DHT22;25333;50.762;4.470;2024-02-26T03:30:31;6.50;99.90
38973;DHT22;25333;50.762;4.470;2024-02-26T03:32:56;6.40;99.90
38973;DHT22;25333;50.762;4.470;2024-02-26T03:35:22;6.40;99.90
38973;DHT22;25333;50.762;4.470;2024-02-26T03:37:48;6.40;99.90
38973;DHT22;25333;50.762;4.470;2024-02-26T03:40:15;6.40;99.90
38973;DHT22;25333;50.762;4.470;2024-02-26T03:42:44;6.40;99.90
38973;DHT22;25333;50.762;4.470;2024-02-26T03:45:14;6.30;99.90
38973;DHT22;25333;50.762;4.470;2024-02-26T03:47:40;6.30;99.90
38973;DHT22;25333;50.762;4.470;2024-02-26T03:50:07;6.30;99.90
38973;DHT22;25333;50.762;4.470;2024-02-26T03:52:33;6.30;99.90
38973;DHT22;25333;50.762;4.470;2024-02-26T03:54:59;6.40;99.90
38973;DHT22;25333;50.762;4.470;2024-02-26T03:57:25;6.30;99.90
38973;DHT22;25333;50.762;4.470;2024-02-26T03:59:51;6.40;99.90
38973;DHT22;25333;50.762;4.470;2024-02-26T04:02:18;6.40;99.90
38973;DHT22;25333;50.762;4.470;2024-02-26T04:04:46;6.30;99.90
38973;DHT22;25333;50.762;4.470;2024-02-26T04:07:12;6.30;99.90
38973;DHT22;25333;50.762;4.470;2024-02-26T04:09:38;6.30;99.90
38973;DHT22;25333;50.762;4.470;2024-02-26T04:12:04;6.30;99.90
38973;DHT22;25333;50.762;4.470;2024-02-26T04:14:30;6.20;99.90
38973;DHT22;25333;50.762;4.470;2024-02-26T04:16:58;6.30;99.90
38973;DHT22;25333;50.762;4.470;2024-02-26T04:19:23;6.30;99.90
38973;DHT22;25333;50.762;4.470;2024-02-26T04:21:51;6.30;99.90
38973;DHT22;25333;50.762;4.470;2024-02-26T04:24:17;6.30;99.90
38973;DHT22;25333;50.762;4.470;2024-02-26T04:26:42;6.30;99.90
38973;DHT22;25333;50.762;4.470;2024-02-26T04:29:08;6.30;99.90
38973;DHT22;25333;50.762;4.470;2024-02-26T04:31:34;6.30;99.90
38973;DHT22;25333;50.762;4.470;2024-02-26T04:34:00;6.30;99.90
38973;DHT22;25333;50.762;4.470;2024-02-26T04:36:25;6.30;99.90
38973;DHT22;25333;50.762;4.470;2024-02-26T04:38:51;6.30;99.90
38973;DHT22;25333;50.762;4.470;2024-02-26T04:41:20;6.30;99.90
38973;DHT22;25333;50.762;4.470;2024-02-26T04:43:45;6.30;99.90
38973;DHT22;25333;50.762;4.470;2024-02-26T04:46:11;6.20;99.90
38973;DHT22;25333;50.762;4.470;2024-02-26T04:48:37;6.20;99.90
38973;DHT22;25333;50.762;4.470;2024-02-26T04:51:04;6.20;99.90
38973;DHT22;25333;50.762;4.470;2024-02-26T04:53:30;6.30;99.90
38973;DHT22;25333;50.762;4.470;2024-02-26T04:55:57;6.30;99.90
38973;DHT22;25333;50.762;4.470;2024-02-26T04:58:23;6.30;99.90
38973;DHT22;25333;50.762;4.470;2024-02-26T05:00:49;6.30;99.90
38973;DHT22;25333;50.762;4.470;2024-02-26T05:03:14;6.30;99.90
38973;DHT22;25333;50.762;4.470;2024-02-26T05:05:42;6.30;99.90
38973;DHT22;25333;50.762;4.470;2024-02-26T05:08:08;6.30;99.90
38973;DHT22;25333;50.762;4.470;2024-02-26T05:10:34;6.30;99.90
38973;DHT22;25333;50.762;4.470;2024-02-26T05:13:04;6.30;99.90
38973;DHT22;25333;50.762;4.470;2024-02-26T05:15:30;6.30;99.90
38973;DHT22;25333;50.762;4.470;2024-02-26T05:17:56;6.30;99.90
38973;DHT22;25333;50.762;4.470;2024-02-26T05:20:22;6.30;99.90
38973;DHT22;25333;50.762;4.470;2024-02-26T05:22:47;6.30;99.90
38973;DHT22;25333;50.762;4.470;2024-02-26T05:25:15;6.30;99.90
38973;DHT22;25333;50.762;4.470;2024-02-26T05:27:42;6.30;99.90
38973;DHT22;25333;50.762;4.470;2024-02-26T05:30:11;6.30;99.90
38973;DHT22;25333;50.762;4.470;2024-02-26T05:32:37;6.30;99.90
38973;DHT22;25333;50.762;4.470;2024-02-26T05:35:03;6.20;99.90
38973;DHT22;25333;50.762;4.470;2024-02-26T05:37:31;6.20;99.90
38973;DHT22;25333;50.762;4.470;2024-02-26T05:39:56;6.20;99.90
38973;DHT22;25333;50.762;4.470;2024-02-26T05:42:22;6.20;99.90
38973;DHT22;25333;50.762;4.470;2024-02-26T05:44:47;6.20;99.90
38973;DHT22;25333;50.762;4.470;2024-02-26T05:47:13;6.20;99.90
38973;DHT22;25333;50.762;4.470;2024-02-26T05:49:39;6.20;99.90
38973;DHT22;25333;50.762;4.470;2024-02-26T05:52:06;6.30;99.90
38973;DHT22;25333;50.762;4.470;2024-02-26T05:54:31;6.20;99.90
38973;DHT22;25333;50.762;4.470;2024-02-26T05:56:58;6.20;99.90
38973;DHT22;25333;50.762;4.470;2024-02-26T05:59:23;6.20;99.90
38973;DHT22;25333;50.762;4.470;2024-02-26T06:01:49;6.20;99.90
38973;DHT22;25333;50.762;4.470;2024-02-26T06:04:15;6.20;99.90
38973;DHT22;25333;50.762;4.470;2024-02-26T06:06:42;6.20;99.90
38973;DHT22;25333;50.762;4.470;2024-02-26T06:09:08;6.20;99.90
38973;DHT22;25333;50.762;4.470;2024-02-26T06:11:33;6.20;99.90
38973;DHT22;25333;50.762;4.470;2024-02-26T06:13:59;6.20;99.90
38973;DHT22;25333;50.762;4.470;2024-02-26T06:16:26;6.20;99.90
38973;DHT22;25333;50.762;4.470;2024-02-26T06:18:51;6.20;99.90
38973;DHT22;25333;50.762;4.470;2024-02-26T06:21:17;6.20;99.90
38973;DHT22;25333;50.762;4.470;2024-02-26T06:23:45;6.10;99.90
38973;DHT22;25333;50.762;4.470;2024-02-26T06:26:14;6.10;99.90
38973;DHT22;25333;50.762;4.470;2024-02-26T06:28:39;6.10;99.90
38973;DHT22;25333;50.762;4.470;2024-02-26T06:31:08;6.20;99.90
38973;DHT22;25333;50.762;4.470;2024-02-26T06:33:33;6.10;99.90
38973;DHT22;25333;50.762;4.470;2024-02-26T06:36:09;6.10;99.90
38973;DHT22;25333;50.762;4.470;2024-02-26T06:38:35;6.10;99.90
38973;DHT22;25333;50.762;4.470;2024-02-26T06:41:01;6.20;99.90
38973;DHT22;25333;50.762;4.470;2024-02-26T06:43:43;6.20;99.90
38973;DHT22;25333;50.762;4.470;2024-02-26T06:53:13;6.20;99.90
38973;DHT22;25333;50.762;4.470;2024-02-26T06:55:44;6.30;99.90
38973;DHT22;25333;50.762;4.470;2024-02-26T07:08:10;6.10;99.90
38973;DHT22;25333;50.762;4.470;2024-02-26T07:11:29;6.10;99.90
38973;DHT22;25333;50.762;4.470;2024-02-26T07:14:31;6.10;99.90
38973;DHT22;25333;50.762;4.470;2024-02-26T07:17:28;6.10;99.90
38973;DHT22;25333;50.762;4.470;2024-02-26T07:31:27;6.10;99.90
38973;DHT22;25333;50.762;4.470;2024-02-26T07:34:33;6.10;99.90
38973;DHT22;25333;50.762;4.470;2024-02-26T07:44:09;6.00;99.90
38973;DHT22;25333;50.762;4.470;2024-02-26T07:57:41;5.90;99.90
38973;DHT22;25333;50.762;4.470;2024-02-26T08:04:01;5.90;99.90
38973;DHT22;25333;50.762;4.470;2024-02-26T08:32:33;5.90;99.90
38973;DHT22;25333;50.762;4.470;2024-02-26T09:07:15;6.00;99.90
38973;DHT22;25333;50.762;4.470;2024-02-26T09:20:41;6.10;99.90
38973;DHT22;25333;50.762;4.470;2024-02-26T11:04:23;6.00;99.90
38973;DHT22;25333;50.762;4.470;2024-02-26T11:07:38;5.90;99.90
38973;DHT22;25333;50.762;4.470;2024-02-26T11:21:27;5.90;99.90
38973;DHT22;25333;50.762;4.470;2024-02-26T12:03:03;5.70;99.90
38973;DHT22;25333;50.762;4.470;2024-02-26T12:20:58;5.60;99.90
38973;DHT22;25333;50.762;4.470;2024-02-26T12:49:24;5.60;99.90
38973;DHT22;25333;50.762;4.470;2024-02-26T16:13:12;5.60;99.90
38973;DHT22;25333;50.762;4.470;2024-02-26T16:16:02;5.60;99.90
38973;DHT22;25333;50.762;4.470;2024-02-26T16:18:34;5.60;99.90
38973;DHT22;25333;50.762;4.470;2024-02-26T16:21:05;5.60;99.90
38973;DHT22;25333;50.762;4.470;2024-02-26T16:23:56;5.60;99.90
38973;DHT22;25333;50.762;4.470;2024-02-26T16:26:22;5.50;99.90
38973;DHT22;25333;50.762;4.470;2024-02-26T16:28:57;5.60;99.90
38973;DHT22;25333;50.762;4.470;2024-02-26T16:32:01;5.60;99.90
38973;DHT22;25333;50.762;4.470;2024-02-26T16:38:24;5.60;99.90
38973;DHT22;25333;50.762;4.470;2024-02-26T16:44:43;5.60;99.90
38973;DHT22;25333;50.762;4.470;2024-02-26T16:47:32;5.60;99.90
38973;DHT22;25333;50.762;4.470;2024-02-26T16:50:39;5.60;99.90
38973;DHT22;25333;50.762;4.470;2024-02-26T16:53:35;5.60;99.90
38973;DHT22;25333;50.762;4.470;2024-02-26T16:56:26;5.60;99.90
38973;DHT22;25333;50.762;4.470;2024-02-26T19:49:58;5.70;99.90
